createdAt,value
2018-12-24T15:31:36.592Z,99.90
2018-12-24T15:34:10.775Z,99.90
2018-12-24T15:36:45.527Z,98.10
2018-12-24T15:39:19.435Z,98.10
2018-12-24T15:41:53.572Z,99.30
2018-12-24T15:44:27.658Z,98.10
2018-12-24T15:47:01.816Z,98.40
2018-12-24T15:49:35.743Z,98.10
2018-12-24T15:52:10.456Z,97.20
2018-12-24T15:54:45.196Z,96.20
2018-12-24T15:57:19.267Z,96.20
2018-12-24T15:59:53.290Z,96.70
2018-12-24T16:02:27.412Z,97.50
2018-12-24T16:05:01.390Z,97.00
2018-12-24T16:07:35.533Z,98.30
2018-12-24T16:10:10.556Z,97.90
2018-12-24T16:12:44.704Z,97.90
2018-12-24T16:15:18.871Z,98.40
2018-12-24T16:17:53.000Z,97.90
2018-12-24T16:20:26.931Z,98.30
2018-12-24T16:23:01.006Z,99.10
2018-12-24T16:25:36.757Z,99.00
2018-12-24T16:28:11.401Z,99.70
2018-12-24T16:30:45.544Z,99.60
2018-12-24T16:33:19.708Z,99.80
2018-12-24T16:35:53.908Z,99.90
2018-12-24T16:38:29.037Z,99.90
2018-12-24T16:41:03.073Z,99.90
2018-12-24T16:43:37.120Z,99.90
2018-12-24T16:46:11.091Z,99.90
2018-12-24T16:48:45.211Z,99.90
2018-12-24T16:51:19.366Z,99.90
2018-12-24T16:53:53.450Z,99.90
2018-12-24T16:56:27.773Z,99.90
2018-12-24T16:59:01.696Z,99.90
2018-12-24T17:01:35.696Z,99.90
2018-12-24T17:04:09.793Z,99.90
2018-12-24T17:06:43.976Z,99.90
2018-12-24T17:09:18.268Z,99.90
2018-12-24T17:11:52.481Z,99.90
2018-12-24T17:14:27.179Z,99.90
2018-12-24T17:17:07.707Z,99.90
2018-12-24T17:19:35.414Z,99.90
2018-12-24T17:22:09.543Z,99.90
2018-12-24T17:24:43.607Z,99.90
2018-12-24T17:27:17.627Z,99.90
2018-12-24T17:29:51.730Z,99.90
2018-12-24T17:32:27.282Z,99.90
2018-12-24T17:35:02.220Z,99.90
2018-12-24T17:37:36.395Z,99.90
2018-12-24T17:40:10.637Z,99.90
2018-12-24T17:42:44.860Z,99.90
2018-12-24T17:45:19.059Z,99.90
2018-12-24T17:47:53.205Z,99.90
2018-12-24T17:50:27.335Z,99.90
2018-12-24T17:53:01.364Z,99.90
2018-12-24T17:55:35.456Z,99.90
2018-12-24T17:58:09.573Z,99.90
2018-12-24T18:00:43.575Z,99.90
2018-12-24T18:03:17.704Z,99.90
2018-12-24T18:05:52.633Z,99.90
2018-12-24T18:08:26.775Z,99.90
2018-12-24T18:11:00.769Z,99.90
2018-12-24T18:13:34.904Z,99.90
2018-12-24T18:16:09.731Z,99.90
2018-12-24T18:18:43.807Z,99.90
2018-12-24T18:21:17.920Z,99.90
2018-12-24T18:23:52.156Z,99.90
2018-12-24T18:26:26.168Z,99.90
2018-12-24T18:29:01.064Z,99.90
2018-12-24T18:31:35.170Z,99.90
2018-12-24T18:34:09.164Z,99.90
2018-12-24T18:36:43.245Z,99.90
2018-12-24T18:39:17.868Z,99.90
2018-12-24T18:41:51.976Z,99.90
2018-12-24T18:44:26.089Z,99.90
2018-12-24T18:47:00.221Z,99.90
2018-12-24T18:49:35.308Z,99.90
2018-12-24T18:52:09.521Z,99.90
2018-12-24T18:54:43.564Z,99.90
2018-12-24T18:57:17.570Z,99.90
2018-12-24T18:59:51.730Z,99.90
2018-12-24T19:02:25.860Z,99.90
2018-12-24T19:04:59.990Z,99.90
2018-12-24T19:07:34.145Z,99.90
2018-12-24T19:10:08.123Z,99.90
2018-12-24T19:12:42.867Z,99.90
2018-12-24T19:15:16.960Z,99.90
2018-12-24T19:17:51.006Z,99.90
2018-12-24T19:20:25.715Z,99.90
2018-12-24T19:22:59.807Z,99.90
2018-12-24T19:25:33.895Z,99.90
2018-12-24T19:28:08.769Z,99.90
2018-12-24T19:30:43.781Z,99.90
2018-12-24T19:33:18.758Z,99.90
2018-12-24T19:35:52.899Z,99.90
2018-12-24T19:38:27.144Z,99.90
2018-12-24T19:41:01.307Z,99.90
2018-12-24T19:43:35.423Z,99.90
2018-12-24T19:46:09.509Z,99.90
2018-12-24T19:48:43.632Z,99.90
2018-12-24T19:51:17.711Z,99.90
2018-12-24T19:53:51.767Z,99.90
2018-12-24T19:56:26.288Z,99.90
2018-12-24T19:59:00.318Z,99.90
2018-12-24T20:01:34.422Z,99.90
2018-12-24T20:04:08.618Z,99.90
2018-12-24T20:06:42.805Z,99.90
2018-12-24T20:09:16.818Z,99.90
2018-12-24T20:11:51.536Z,99.90
2018-12-24T20:14:30.129Z,99.90
2018-12-24T20:17:04.120Z,99.90
2018-12-24T20:19:38.226Z,99.90
2018-12-24T20:22:12.300Z,99.90
2018-12-24T20:24:46.392Z,99.90
2018-12-24T20:27:20.937Z,99.90
2018-12-24T20:29:55.019Z,99.90
2018-12-24T20:32:29.239Z,99.90
2018-12-24T20:35:03.310Z,99.90
2018-12-24T20:37:37.275Z,99.90
2018-12-24T20:40:11.442Z,99.90
2018-12-24T20:42:45.543Z,99.90
2018-12-24T20:45:19.655Z,99.90
2018-12-24T20:47:53.738Z,99.90
2018-12-24T20:50:27.694Z,99.90
2018-12-24T20:53:01.697Z,99.90
2018-12-24T20:55:36.533Z,99.90
2018-12-24T20:58:10.636Z,99.90
2018-12-24T21:00:44.819Z,99.90
2018-12-24T21:03:19.066Z,99.90
2018-12-24T21:05:53.171Z,99.90
2018-12-24T21:08:27.210Z,99.90
2018-12-24T21:11:01.359Z,99.90
2018-12-24T21:13:35.964Z,99.90
2018-12-24T21:16:09.909Z,99.90
2018-12-24T21:18:44.761Z,99.90
2018-12-24T21:21:18.877Z,99.90
2018-12-24T21:23:53.619Z,99.90
2018-12-24T21:26:27.626Z,99.90
2018-12-24T21:29:02.453Z,99.90
2018-12-24T21:31:36.556Z,99.90
2018-12-24T21:34:11.425Z,99.90
2018-12-24T21:36:45.594Z,99.90
2018-12-24T21:39:20.440Z,99.90
2018-12-24T21:41:55.291Z,99.90
2018-12-24T21:44:29.395Z,99.90
2018-12-24T21:47:03.573Z,99.90
2018-12-24T21:49:37.517Z,99.90
2018-12-24T21:52:11.643Z,99.90
2018-12-24T21:54:45.736Z,99.90
2018-12-24T21:57:19.845Z,99.90
2018-12-24T21:59:53.837Z,99.90
2018-12-24T22:02:27.767Z,99.90
2018-12-24T22:05:01.865Z,99.90
2018-12-24T22:07:35.968Z,99.90
2018-12-24T22:10:10.112Z,99.90
2018-12-24T22:12:44.228Z,99.90
2018-12-24T22:15:18.299Z,99.90
2018-12-24T22:17:52.361Z,99.90
2018-12-24T22:20:27.180Z,99.90
2018-12-24T22:23:01.163Z,99.90
2018-12-24T22:25:35.320Z,99.90
2018-12-24T22:28:09.320Z,99.90
2018-12-24T22:30:44.199Z,99.90
2018-12-24T22:33:18.122Z,99.90
2018-12-24T22:35:52.711Z,99.90
2018-12-24T22:38:26.836Z,99.90
2018-12-24T22:41:00.964Z,99.90
2018-12-24T22:43:35.831Z,99.90
2018-12-24T22:46:09.872Z,99.90
2018-12-24T22:48:43.916Z,99.90
2018-12-24T22:51:18.074Z,99.90
2018-12-24T22:53:51.959Z,99.90
2018-12-24T22:56:26.116Z,99.90
2018-12-24T22:59:00.117Z,99.90
2018-12-24T23:01:34.231Z,99.90
2018-12-24T23:04:08.202Z,99.90
2018-12-24T23:06:42.342Z,99.90
2018-12-24T23:09:16.470Z,99.90
2018-12-24T23:11:51.204Z,99.90
2018-12-24T23:14:25.335Z,99.90
2018-12-24T23:16:59.415Z,99.90
2018-12-24T23:19:33.451Z,99.90
2018-12-24T23:22:07.544Z,99.90
2018-12-24T23:24:41.630Z,99.90
2018-12-24T23:27:15.687Z,99.90
2018-12-24T23:29:49.728Z,99.90
2018-12-24T23:32:23.863Z,99.90
2018-12-24T23:34:57.983Z,99.90
2018-12-24T23:37:31.935Z,99.90
2018-12-24T23:40:05.967Z,99.90
2018-12-24T23:42:55.700Z,99.90
2018-12-24T23:45:29.767Z,99.90
2018-12-24T23:48:05.387Z,99.90
2018-12-24T23:50:39.340Z,99.90
2018-12-24T23:53:14.246Z,99.90
2018-12-24T23:55:48.335Z,99.90
2018-12-24T23:58:23.136Z,99.90
